createdAt,value
2023-04-21T00:01:49.810Z,8.76
2023-04-21T00:04:20.172Z,8.73
2023-04-21T00:06:50.831Z,8.80
2023-04-21T00:09:20.142Z,8.78
2023-04-21T00:11:49.566Z,8.78
2023-04-21T00:14:18.541Z,8.81
2023-04-21T00:16:52.779Z,8.89
2023-04-21T00:19:21.997Z,8.86
2023-04-21T00:21:50.994Z,8.77
2023-04-21T00:24:20.459Z,8.77
2023-04-21T00:26:49.428Z,8.74
2023-04-21T00:29:18.879Z,8.73
2023-04-21T00:31:49.747Z,8.78
2023-04-21T00:34:19.004Z,8.72
2023-04-21T00:36:48.004Z,8.62
2023-04-21T00:39:17.289Z,8.63
2023-04-21T00:41:46.705Z,8.64
2023-04-21T00:44:15.755Z,8.63
2023-04-21T00:46:44.970Z,8.55
2023-04-21T00:49:15.585Z,8.55
2023-04-21T00:51:44.784Z,8.46
2023-04-21T00:54:15.448Z,8.44
2023-04-21T00:56:44.720Z,8.31
2023-04-21T00:59:13.769Z,8.35
2023-04-21T01:01:43.469Z,8.40
2023-04-21T01:04:12.563Z,8.47
2023-04-21T01:06:43.820Z,8.49
2023-04-21T01:09:13.673Z,8.47
2023-04-21T01:11:42.793Z,8.48
2023-04-21T01:14:12.046Z,8.43
2023-04-21T01:16:41.142Z,8.37
2023-04-21T01:19:10.237Z,8.29
2023-04-21T01:21:43.235Z,8.26
2023-04-21T01:24:13.387Z,8.24
2023-04-21T01:26:49.544Z,8.20
2023-04-21T01:29:19.588Z,8.13
2023-04-21T01:31:49.864Z,8.09
2023-04-21T01:34:18.997Z,8.01
2023-04-21T01:36:49.510Z,8.02
2023-04-21T01:39:19.648Z,8.01
2023-04-21T01:41:49.000Z,7.96
2023-04-21T01:44:18.165Z,7.90
2023-04-21T01:46:47.258Z,7.84
2023-04-21T01:49:16.387Z,7.84
2023-04-21T01:51:45.520Z,7.72
2023-04-21T01:54:16.217Z,7.70
2023-04-21T01:56:45.391Z,7.64
2023-04-21T01:59:14.543Z,7.59
2023-04-21T02:01:43.809Z,7.59
2023-04-21T02:04:13.083Z,7.54
2023-04-21T02:06:42.224Z,7.52
2023-04-21T02:09:11.436Z,7.47
2023-04-21T02:11:41.919Z,7.46
2023-04-21T02:14:11.312Z,7.39
2023-04-21T02:16:44.034Z,7.35
2023-04-21T02:19:13.146Z,7.34
2023-04-21T02:21:42.245Z,7.30
2023-04-21T02:24:11.503Z,7.32
2023-04-21T02:26:45.062Z,7.30
2023-04-21T02:29:14.552Z,7.35
2023-04-21T02:31:57.354Z,7.31
2023-04-21T02:34:30.894Z,7.33
2023-04-21T02:37:00.091Z,7.40
2023-04-21T02:39:29.243Z,7.37
2023-04-21T02:41:59.867Z,7.44
2023-04-21T02:44:30.120Z,7.45
2023-04-21T02:46:59.249Z,7.32
2023-04-21T02:49:28.286Z,7.20
2023-04-21T02:51:59.816Z,7.21
2023-04-21T02:54:29.031Z,7.17
2023-04-21T02:56:59.717Z,7.34
2023-04-21T02:59:29.327Z,7.45
2023-04-21T03:02:01.575Z,7.50
2023-04-21T03:04:32.830Z,7.57
2023-04-21T03:07:02.271Z,7.69
2023-04-21T03:09:31.237Z,7.76
2023-04-21T03:12:03.720Z,7.90
2023-04-21T03:14:32.899Z,8.00
2023-04-21T03:17:04.700Z,8.03
2023-04-21T03:19:34.744Z,8.07
2023-04-21T03:22:04.370Z,8.12
2023-04-21T03:24:33.784Z,8.24
2023-04-21T03:27:04.518Z,8.26
2023-04-21T03:29:33.638Z,8.33
2023-04-21T03:32:02.815Z,8.33
2023-04-21T03:34:32.163Z,8.36
2023-04-21T03:37:03.500Z,8.37
2023-04-21T03:39:32.828Z,8.33
2023-04-21T03:42:05.155Z,8.26
2023-04-21T03:44:34.406Z,8.18
2023-04-21T03:47:04.810Z,8.12
2023-04-21T03:49:36.023Z,8.14
2023-04-21T03:52:05.486Z,7.99
2023-04-21T03:54:34.660Z,8.00
2023-04-21T03:57:05.091Z,8.03
2023-04-21T03:59:34.196Z,8.01
2023-04-21T04:02:03.468Z,7.98
2023-04-21T04:04:32.743Z,8.03
2023-04-21T04:07:02.229Z,8.07
2023-04-21T04:09:31.353Z,8.14
2023-04-21T04:12:00.490Z,8.15
2023-04-21T04:14:30.968Z,8.30
2023-04-21T04:17:00.792Z,8.29
2023-04-21T04:19:33.126Z,8.44
2023-04-21T04:22:02.684Z,8.53
2023-04-21T04:24:34.567Z,8.64
2023-04-21T04:27:04.080Z,8.72
2023-04-21T04:29:35.176Z,8.85
2023-04-21T04:32:04.574Z,8.97
2023-04-21T04:34:33.621Z,9.08
2023-04-21T04:37:03.976Z,9.13
2023-04-21T04:39:33.175Z,9.12
2023-04-21T04:42:03.932Z,9.07
2023-04-21T04:44:34.561Z,9.08
2023-04-21T04:47:04.293Z,9.02
2023-04-21T04:49:33.323Z,9.16
2023-04-21T04:52:02.413Z,9.34
2023-04-21T04:54:31.626Z,9.39
2023-04-21T04:57:01.677Z,9.55
2023-04-21T04:59:31.209Z,9.65
2023-04-21T05:02:01.834Z,9.75
2023-04-21T05:04:31.219Z,9.82
2023-04-21T05:07:00.608Z,10.01
2023-04-21T05:09:29.683Z,10.19
2023-04-21T05:11:58.741Z,10.35
2023-04-21T05:14:28.774Z,10.55
2023-04-21T05:16:58.093Z,10.81
2023-04-21T05:19:28.765Z,11.02
2023-04-21T05:22:01.561Z,11.22
2023-04-21T05:24:30.854Z,11.38
2023-04-21T05:27:03.420Z,11.56
2023-04-21T05:29:34.462Z,11.75
2023-04-21T05:32:03.809Z,12.05
2023-04-21T05:34:34.383Z,12.26
2023-04-21T05:37:03.725Z,12.34
2023-04-21T05:39:32.851Z,12.34
2023-04-21T05:42:02.573Z,12.31
2023-04-21T05:44:31.607Z,12.22
2023-04-21T05:47:00.721Z,12.23
2023-04-21T05:49:29.785Z,12.29
2023-04-21T05:52:00.393Z,12.38
2023-04-21T05:54:29.525Z,12.44
2023-04-21T05:56:58.712Z,12.53
2023-04-21T05:59:27.870Z,12.64
2023-04-21T06:01:56.907Z,12.77
2023-04-21T06:04:26.716Z,12.82
2023-04-21T06:06:56.420Z,12.98
2023-04-21T06:09:27.110Z,12.92
2023-04-21T06:11:57.183Z,12.90
2023-04-21T06:14:26.662Z,12.95
2023-04-21T06:16:55.669Z,12.93
2023-04-21T06:19:25.063Z,13.19
2023-04-21T06:21:54.454Z,13.35
2023-04-21T06:24:26.036Z,13.39
2023-04-21T06:26:56.840Z,13.61
2023-04-21T06:29:26.039Z,13.91
2023-04-21T06:31:55.078Z,14.29
2023-04-21T06:34:24.324Z,14.60
2023-04-21T06:37:04.404Z,14.92
2023-04-21T06:39:36.536Z,15.00
2023-04-21T06:42:07.329Z,15.31
2023-04-21T06:44:44.402Z,15.41
2023-04-21T06:47:13.656Z,15.32
2023-04-21T06:49:42.701Z,15.39
2023-04-21T06:52:11.928Z,15.55
2023-04-21T06:54:41.006Z,15.72
2023-04-21T06:57:11.729Z,15.79
2023-04-21T06:59:40.928Z,15.87
2023-04-21T07:02:10.006Z,15.89
2023-04-21T07:04:39.241Z,16.07
2023-04-21T07:07:08.450Z,16.30
2023-04-21T07:09:37.628Z,16.38
2023-04-21T07:12:07.110Z,16.84
2023-04-21T07:14:39.260Z,17.09
2023-04-21T07:17:08.819Z,17.27
2023-04-21T07:19:38.511Z,17.11
2023-04-21T07:22:07.630Z,17.15
2023-04-21T07:24:38.082Z,16.68
2023-04-21T07:27:07.303Z,16.89
2023-04-21T07:29:37.845Z,16.68
2023-04-21T07:32:07.214Z,16.86
2023-04-21T07:34:36.465Z,17.11
2023-04-21T07:37:05.542Z,17.11
2023-04-21T07:39:34.565Z,17.01
2023-04-21T07:42:03.939Z,17.12
2023-04-21T07:44:33.059Z,17.48
2023-04-21T07:47:03.709Z,17.74
2023-04-21T07:49:32.825Z,17.93
2023-04-21T07:52:01.954Z,18.02
2023-04-21T07:54:31.865Z,17.82
2023-04-21T07:57:01.938Z,17.59
2023-04-21T07:59:31.169Z,17.77
2023-04-21T08:02:00.332Z,18.04
2023-04-21T08:04:31.290Z,18.17
2023-04-21T08:07:00.748Z,18.12
2023-04-21T08:09:30.067Z,18.50
2023-04-21T08:11:59.584Z,18.68
2023-04-21T08:14:28.785Z,18.49
2023-04-21T08:16:58.001Z,18.57
2023-04-21T08:19:27.240Z,18.52
2023-04-21T08:21:58.972Z,18.55
2023-04-21T08:24:28.331Z,18.79
2023-04-21T08:26:57.882Z,19.09
2023-04-21T08:29:27.032Z,18.90
2023-04-21T08:31:56.179Z,19.22
2023-04-21T08:34:27.671Z,19.33
2023-04-21T08:36:58.597Z,19.53
2023-04-21T08:39:28.074Z,19.47
2023-04-21T08:41:57.943Z,19.33
2023-04-21T08:44:27.920Z,19.38
2023-04-21T08:46:58.235Z,19.55
2023-04-21T08:49:31.409Z,19.40
2023-04-21T08:52:03.015Z,19.54
2023-04-21T08:54:32.457Z,19.22
2023-04-21T08:57:14.058Z,19.23
2023-04-21T08:59:44.745Z,19.39
2023-04-21T09:02:16.532Z,19.48
2023-04-21T09:05:00.304Z,19.56
2023-04-21T09:07:36.285Z,19.88
2023-04-21T09:10:07.157Z,19.97
2023-04-21T09:12:36.313Z,19.67
2023-04-21T09:15:07.030Z,19.88
2023-04-21T09:17:37.262Z,20.08
2023-04-21T09:20:17.402Z,20.08
2023-04-21T09:22:50.006Z,19.65
2023-04-21T09:25:21.297Z,19.73
2023-04-21T09:27:50.731Z,19.94
2023-04-21T09:30:22.902Z,19.85
2023-04-21T09:32:52.152Z,19.69
2023-04-21T09:35:21.480Z,19.36
2023-04-21T09:37:52.074Z,19.11
2023-04-21T09:40:21.241Z,18.64
2023-04-21T09:42:50.686Z,18.42
2023-04-21T09:47:52.995Z,18.44
2023-04-21T09:50:51.184Z,18.35
2023-04-21T09:53:17.259Z,18.16
2023-04-21T09:55:50.906Z,17.99
2023-04-21T09:58:24.249Z,18.23
2023-04-21T10:00:55.259Z,18.25
2023-04-21T10:03:28.861Z,18.40
2023-04-21T10:05:58.214Z,18.29
2023-04-21T10:08:29.448Z,18.33
2023-04-21T10:10:59.299Z,18.47
2023-04-21T10:13:29.036Z,18.67
2023-04-21T10:16:09.055Z,19.48
2023-04-21T10:18:39.699Z,20.17
2023-04-21T10:21:10.255Z,20.66
2023-04-21T10:23:43.785Z,20.53
2023-04-21T10:26:16.547Z,20.77
2023-04-21T10:28:53.816Z,20.65
2023-04-21T10:31:52.563Z,20.11
2023-04-21T10:34:23.879Z,20.17
2023-04-21T10:37:15.699Z,20.11
2023-04-21T10:39:57.251Z,20.35
2023-04-21T10:42:35.161Z,20.53
2023-04-21T10:45:13.964Z,19.96
2023-04-21T10:47:45.676Z,19.73
2023-04-21T10:50:20.637Z,19.36
2023-04-21T10:52:57.545Z,18.98
2023-04-21T10:55:36.154Z,18.77
2023-04-21T10:58:07.535Z,18.48
2023-04-21T11:00:39.592Z,18.45
2023-04-21T11:03:11.406Z,18.45
2023-04-21T11:05:42.901Z,18.15
2023-04-21T11:08:14.837Z,18.09
2023-04-21T11:10:57.202Z,18.03
2023-04-21T11:13:27.480Z,17.85
2023-04-21T11:16:08.444Z,17.67
2023-04-21T11:18:45.271Z,17.50
2023-04-21T11:21:21.789Z,17.45
2023-04-21T11:23:53.588Z,17.36
2023-04-21T11:26:34.849Z,17.26
2023-04-21T11:29:06.315Z,17.12
2023-04-21T11:31:36.678Z,17.16
2023-04-21T11:34:07.844Z,17.06
2023-04-21T11:36:37.677Z,17.15
2023-04-21T11:39:10.309Z,17.19
2023-04-21T11:41:43.394Z,17.10
2023-04-21T11:44:14.013Z,17.21
2023-04-21T11:46:48.066Z,17.25
2023-04-21T11:49:18.771Z,17.21
2023-04-21T11:51:47.854Z,17.18
2023-04-21T11:54:22.244Z,17.23
2023-04-21T11:56:56.281Z,17.23
2023-04-21T11:59:26.631Z,17.24
2023-04-21T12:01:57.443Z,17.27
2023-04-21T12:04:27.686Z,17.28
2023-04-21T12:06:59.475Z,17.46
2023-04-21T12:09:29.686Z,17.51
2023-04-21T12:12:01.986Z,17.91
2023-04-21T12:14:35.010Z,18.40
2023-04-21T12:17:04.061Z,18.23
2023-04-21T12:19:39.380Z,18.06
2023-04-21T12:22:12.313Z,17.99
2023-04-21T12:24:42.375Z,18.07
2023-04-21T12:27:13.776Z,18.00
2023-04-21T12:29:43.416Z,18.02
2023-04-21T12:32:12.791Z,18.05
2023-04-21T12:34:42.086Z,17.96
2023-04-21T12:37:11.361Z,18.02
2023-04-21T12:39:40.651Z,17.90
2023-04-21T12:42:09.950Z,17.82
2023-04-21T12:44:41.241Z,17.87
2023-04-21T12:47:10.897Z,17.83
2023-04-21T12:49:40.112Z,17.91
2023-04-21T12:52:10.139Z,17.95
2023-04-21T12:54:39.570Z,18.08
2023-04-21T12:57:08.730Z,18.13
2023-04-21T12:59:37.953Z,18.25
2023-04-21T13:02:08.718Z,18.33
2023-04-21T13:04:39.395Z,18.27
2023-04-21T13:07:08.936Z,18.45
2023-04-21T13:09:38.032Z,18.36
2023-04-21T13:12:07.355Z,18.55
2023-04-21T13:14:36.380Z,18.64
2023-04-21T13:17:08.254Z,18.63
2023-04-21T13:19:41.240Z,19.23
2023-04-21T13:22:10.635Z,20.05
2023-04-21T13:24:39.729Z,20.16
2023-04-21T13:27:08.919Z,19.87
2023-04-21T13:29:38.210Z,19.90
2023-04-21T13:32:09.046Z,19.71
2023-04-21T13:34:38.273Z,19.76
2023-04-21T13:37:12.790Z,19.94
2023-04-21T13:39:42.106Z,20.14
2023-04-21T13:42:11.724Z,20.08
2023-04-21T13:44:41.029Z,20.24
2023-04-21T13:47:10.806Z,20.26
2023-04-21T13:49:40.386Z,20.16
2023-04-21T13:52:11.249Z,20.16
2023-04-21T13:54:40.512Z,20.00
2023-04-21T13:57:09.909Z,19.52
2023-04-21T13:59:39.065Z,19.70
2023-04-21T14:02:08.935Z,19.61
2023-04-21T14:04:38.743Z,19.47
2023-04-21T14:07:09.227Z,19.15
2023-04-21T14:09:39.726Z,18.87
2023-04-21T14:12:08.986Z,18.72
2023-04-21T14:14:39.111Z,18.38
2023-04-21T14:17:09.313Z,18.21
2023-04-21T14:19:38.483Z,18.06
2023-04-21T14:22:07.629Z,17.90
2023-04-21T14:24:37.077Z,17.82
2023-04-21T14:27:07.750Z,17.96
2023-04-21T14:29:37.094Z,18.14
2023-04-21T14:32:06.540Z,18.09
2023-04-21T14:34:35.975Z,18.09
2023-04-21T14:37:08.453Z,18.20
2023-04-21T14:39:37.614Z,18.21
2023-04-21T14:42:08.411Z,18.26
2023-04-21T14:44:37.581Z,18.40
2023-04-21T14:47:10.323Z,18.36
2023-04-21T14:49:40.719Z,18.41
2023-04-21T14:52:10.262Z,18.30
2023-04-21T14:54:39.469Z,18.19
2023-04-21T14:57:18.700Z,18.05
2023-04-21T14:59:51.798Z,18.02
2023-04-21T15:02:22.160Z,17.84
2023-04-21T15:04:52.213Z,17.87
2023-04-21T15:07:24.000Z,17.89
2023-04-21T15:09:55.734Z,17.98
2023-04-21T15:12:26.593Z,18.07
2023-04-21T15:14:55.827Z,18.01
2023-04-21T15:17:25.426Z,17.83
2023-04-21T15:19:54.896Z,17.78
2023-04-21T15:22:24.216Z,17.71
2023-04-21T15:24:54.526Z,17.57
2023-04-21T15:27:25.596Z,17.57
2023-04-21T15:29:55.145Z,17.40
2023-04-21T15:32:24.438Z,17.45
2023-04-21T15:34:53.811Z,17.37
2023-04-21T15:37:25.537Z,17.36
2023-04-21T15:39:55.248Z,17.31
2023-04-21T15:42:25.859Z,17.37
2023-04-21T15:44:55.966Z,17.37
2023-04-21T15:47:25.312Z,17.40
2023-04-21T15:49:55.264Z,17.45
2023-04-21T15:52:24.644Z,17.41
2023-04-21T15:54:53.963Z,17.44
2023-04-21T15:57:24.517Z,17.49
2023-04-21T15:59:55.394Z,17.50
2023-04-21T16:02:25.093Z,17.43
2023-04-21T16:04:54.985Z,17.42
2023-04-21T16:07:24.652Z,17.35
2023-04-21T16:09:54.340Z,17.31
2023-04-21T16:12:23.717Z,17.37
2023-04-21T16:14:59.414Z,17.31
2023-04-21T16:17:35.810Z,17.27
2023-04-21T16:20:06.560Z,17.24
2023-04-21T16:22:36.487Z,17.24
2023-04-21T16:25:06.288Z,17.20
2023-04-21T16:27:35.922Z,17.07
2023-04-21T16:30:08.601Z,17.16
2023-04-21T16:32:38.112Z,17.06
2023-04-21T16:35:09.250Z,17.12
2023-04-21T16:37:42.930Z,17.05
2023-04-21T16:40:13.766Z,16.97
2023-04-21T16:42:43.148Z,16.91
2023-04-21T16:45:14.406Z,16.85
2023-04-21T16:47:43.987Z,16.72
2023-04-21T16:50:13.792Z,16.72
2023-04-21T16:52:43.032Z,16.65
2023-04-21T16:55:12.451Z,16.67
2023-04-21T16:57:41.938Z,16.65
2023-04-21T17:00:12.290Z,16.60
2023-04-21T17:02:43.305Z,16.51
2023-04-21T17:05:15.787Z,16.25
2023-04-21T17:07:45.326Z,16.25
2023-04-21T17:10:14.886Z,16.14
2023-04-21T17:12:44.300Z,15.97
2023-04-21T17:15:13.797Z,15.80
2023-04-21T17:17:47.310Z,15.51
2023-04-21T17:20:16.869Z,15.28
2023-04-21T17:22:46.589Z,15.27
2023-04-21T17:25:15.993Z,15.32
2023-04-21T17:27:46.606Z,15.10
2023-04-21T17:30:16.264Z,15.09
2023-04-21T17:32:47.007Z,15.02
2023-04-21T17:35:16.971Z,14.90
2023-04-21T17:37:46.380Z,15.06
2023-04-21T17:40:15.690Z,14.84
2023-04-21T17:42:44.924Z,14.74
2023-04-21T17:45:14.314Z,14.71
2023-04-21T17:47:44.084Z,14.61
2023-04-21T17:50:14.797Z,14.41
2023-04-21T17:52:44.096Z,14.40
2023-04-21T17:55:15.868Z,14.37
2023-04-21T17:57:45.180Z,13.96
2023-04-21T18:00:17.931Z,13.87
2023-04-21T18:02:47.126Z,13.75
2023-04-21T18:05:18.174Z,13.79
2023-04-21T18:07:47.488Z,13.90
2023-04-21T18:10:16.666Z,13.90
2023-04-21T18:12:45.900Z,13.88
2023-04-21T18:15:15.369Z,13.90
2023-04-21T18:17:44.692Z,13.79
2023-04-21T18:20:15.321Z,13.86
2023-04-21T18:22:46.910Z,13.85
2023-04-21T18:25:18.689Z,13.88
2023-04-21T18:27:53.809Z,13.75
2023-04-21T18:30:23.094Z,13.80
2023-04-21T18:32:52.541Z,13.83
2023-04-21T18:35:22.010Z,13.79
2023-04-21T18:37:52.626Z,13.77
2023-04-21T18:40:22.143Z,13.75
2023-04-21T18:42:51.516Z,13.69
2023-04-21T18:45:20.957Z,13.72
2023-04-21T18:47:50.303Z,13.72
2023-04-21T18:50:19.780Z,13.64
2023-04-21T18:52:49.382Z,13.65
2023-04-21T18:55:20.685Z,13.53
2023-04-21T18:57:50.180Z,13.46
2023-04-21T19:00:19.602Z,13.40
2023-04-21T19:02:51.571Z,13.33
2023-04-21T19:05:21.366Z,13.29
2023-04-21T19:07:50.693Z,13.26
2023-04-21T19:10:22.025Z,13.21
2023-04-21T19:12:51.651Z,13.00
2023-04-21T19:15:21.607Z,13.01
2023-04-21T19:17:51.086Z,12.95
2023-04-21T19:20:20.474Z,12.94
2023-04-21T19:22:49.847Z,12.87
2023-04-21T19:25:20.682Z,12.84
2023-04-21T19:27:50.124Z,12.76
2023-04-21T19:30:19.343Z,12.72
2023-04-21T19:32:48.544Z,12.64
2023-04-21T19:35:17.983Z,12.67
2023-04-21T19:37:47.481Z,12.68
2023-04-21T19:40:16.777Z,12.65
2023-04-21T19:42:47.393Z,12.47
2023-04-21T19:45:16.809Z,12.53
2023-04-21T19:47:48.923Z,12.47
2023-04-21T19:50:18.100Z,12.45
2023-04-21T19:52:47.986Z,12.34
2023-04-21T19:55:17.462Z,12.20
2023-04-21T19:57:48.269Z,12.17
2023-04-21T20:00:18.515Z,12.14
2023-04-21T20:02:47.904Z,12.22
2023-04-21T20:05:17.309Z,12.07
2023-04-21T20:07:47.160Z,11.94
2023-04-21T20:10:16.619Z,11.97
2023-04-21T20:12:46.147Z,11.93
2023-04-21T20:15:17.283Z,11.88
2023-04-21T20:17:47.831Z,11.75
2023-04-21T20:20:17.787Z,11.88
2023-04-21T20:22:48.195Z,11.84
2023-04-21T20:25:17.773Z,11.77
2023-04-21T20:27:47.066Z,11.67
2023-04-21T20:30:17.809Z,11.63
2023-04-21T20:32:47.088Z,11.38
2023-04-21T20:35:17.244Z,11.30
2023-04-21T20:37:46.434Z,11.19
2023-04-21T20:40:16.114Z,11.18
2023-04-21T20:42:45.804Z,11.05
2023-04-21T20:45:17.605Z,11.00
2023-04-21T20:47:46.958Z,11.04
2023-04-21T20:50:16.055Z,11.09
2023-04-21T20:52:45.118Z,11.15
2023-04-21T20:55:14.656Z,11.08
2023-04-21T20:57:43.724Z,11.12
2023-04-21T21:00:14.044Z,11.02
2023-04-21T21:02:44.903Z,10.99
2023-04-21T21:05:14.364Z,10.89
2023-04-21T21:07:43.550Z,10.73
2023-04-21T21:10:12.955Z,10.70
2023-04-21T21:12:42.106Z,10.61
2023-04-21T21:15:12.034Z,10.50
2023-04-21T21:17:41.380Z,10.37
2023-04-21T21:20:13.094Z,10.22
2023-04-21T21:22:43.357Z,10.08
2023-04-21T21:25:12.573Z,10.01
2023-04-21T21:27:41.684Z,10.05
2023-04-21T21:30:11.568Z,9.94
2023-04-21T21:32:40.821Z,9.81
2023-04-21T21:35:12.216Z,9.66
2023-04-21T21:37:44.244Z,9.62
2023-04-21T21:40:13.986Z,9.53
2023-04-21T21:42:43.253Z,9.65
2023-04-21T21:45:13.418Z,9.51
2023-04-21T21:47:45.408Z,9.48
2023-04-21T21:50:16.772Z,9.44
2023-04-21T21:52:45.900Z,9.41
2023-04-21T21:55:15.063Z,9.40
2023-04-21T21:57:44.298Z,9.37
2023-04-21T22:00:14.597Z,9.37
2023-04-21T22:02:44.231Z,9.27
2023-04-21T22:05:14.113Z,9.32
2023-04-21T22:07:45.738Z,9.26
2023-04-21T22:10:15.141Z,9.22
2023-04-21T22:12:44.366Z,9.16
2023-04-21T22:15:13.608Z,9.15
2023-04-21T22:17:43.842Z,9.21
2023-04-21T22:20:13.567Z,9.13
2023-04-21T22:22:43.007Z,9.16
2023-04-21T22:25:13.585Z,9.31
2023-04-21T22:27:42.682Z,9.26
2023-04-21T22:30:12.909Z,9.39
2023-04-21T22:32:42.156Z,9.41
2023-04-21T22:35:11.308Z,9.41
2023-04-21T22:37:40.433Z,9.31
2023-04-21T22:40:11.294Z,9.22
2023-04-21T22:42:42.240Z,9.10
2023-04-21T22:45:12.711Z,9.05
2023-04-21T22:47:42.172Z,8.98
2023-04-21T22:50:15.113Z,8.95
2023-04-21T22:52:44.373Z,8.87
2023-04-21T22:55:13.573Z,8.71
2023-04-21T22:57:44.725Z,8.64
2023-04-21T23:00:14.510Z,8.48
2023-04-21T23:02:43.793Z,8.44
2023-04-21T23:05:13.092Z,8.29
2023-04-21T23:07:42.074Z,8.15
2023-04-21T23:10:11.913Z,8.05
2023-04-21T23:12:41.364Z,8.09
2023-04-21T23:15:12.745Z,8.09
2023-04-21T23:17:42.885Z,8.01
2023-04-21T23:20:12.988Z,7.93
2023-04-21T23:22:42.508Z,7.88
2023-04-21T23:25:12.067Z,7.88
2023-04-21T23:27:41.352Z,7.78
2023-04-21T23:30:13.831Z,7.78
2023-04-21T23:32:43.894Z,7.73
2023-04-21T23:35:13.247Z,7.72
2023-04-21T23:37:42.299Z,7.69
2023-04-21T23:40:12.826Z,7.64
2023-04-21T23:42:42.134Z,7.61
2023-04-21T23:45:18.480Z,7.57
2023-04-21T23:47:47.658Z,7.48
2023-04-21T23:50:16.910Z,7.51
2023-04-21T23:52:46.143Z,7.53
2023-04-21T23:55:15.355Z,7.42
2023-04-21T23:57:47.101Z,7.46
